sensor_id;sensor_type;location;lat;lon;timestamp;P1;durP1;ratioP1;P2;durP2;ratioP2
19384;SDS011;9828;54.122;17.974;2023-04-24T00:02:28;6.88;;;6.18;;
19384;SDS011;9828;54.122;17.974;2023-04-24T00:08:08;7.60;;;6.80;;
19384;SDS011;9828;54.122;17.974;2023-04-24T00:13:29;8.52;;;7.65;;
19384;SDS011;9828;54.122;17.974;2023-04-24T00:18:51;8.07;;;7.22;;
19384;SDS011;9828;54.122;17.974;2023-04-24T00:24:16;8.15;;;6.82;;
19384;SDS011;9828;54.122;17.974;2023-04-24T00:29:38;7.10;;;6.40;;
19384;SDS011;9828;54.122;17.974;2023-04-24T00:35:00;7.97;;;6.55;;
19384;SDS011;9828;54.122;17.974;2023-04-24T00:40:21;7.72;;;6.93;;
19384;SDS011;9828;54.122;17.974;2023-04-24T00:45:42;8.98;;;7.60;;
19384;SDS011;9828;54.122;17.974;2023-04-24T00:51:04;9.43;;;7.05;;
19384;SDS011;9828;54.122;17.974;2023-04-24T00:56:26;7.40;;;6.70;;
19384;SDS011;9828;54.122;17.974;2023-04-24T01:01:48;11.57;;;7.20;;
19384;SDS011;9828;54.122;17.974;2023-04-24T01:07:09;11.75;;;8.93;;
19384;SDS011;9828;54.122;17.974;2023-04-24T01:12:32;8.88;;;7.13;;
19384;SDS011;9828;54.122;17.974;2023-04-24T01:17:53;9.88;;;7.90;;
19384;SDS011;9828;54.122;17.974;2023-04-24T01:23:15;10.45;;;8.30;;
19384;SDS011;9828;54.122;17.974;2023-04-24T01:28:37;8.27;;;6.75;;
19384;SDS011;9828;54.122;17.974;2023-04-24T01:33:59;9.60;;;7.55;;
19384;SDS011;9828;54.122;17.974;2023-04-24T01:39:20;9.75;;;7.40;;
19384;SDS011;9828;54.122;17.974;2023-04-24T01:44:44;8.15;;;6.97;;
19384;SDS011;9828;54.122;17.974;2023-04-24T01:50:05;8.55;;;7.43;;
19384;SDS011;9828;54.122;17.974;2023-04-24T01:55:27;9.55;;;7.88;;
19384;SDS011;9828;54.122;17.974;2023-04-24T02:00:48;10.30;;;8.43;;
19384;SDS011;9828;54.122;17.974;2023-04-24T02:06:10;9.25;;;8.07;;
19384;SDS011;9828;54.122;17.974;2023-04-24T02:11:31;13.77;;;9.75;;
19384;SDS011;9828;54.122;17.974;2023-04-24T02:16:54;16.17;;;10.82;;
19384;SDS011;9828;54.122;17.974;2023-04-24T02:22:15;15.55;;;10.35;;
19384;SDS011;9828;54.122;17.974;2023-04-24T02:27:38;16.30;;;12.45;;
19384;SDS011;9828;54.122;17.974;2023-04-24T02:32:59;19.90;;;12.95;;
19384;SDS011;9828;54.122;17.974;2023-04-24T02:38:21;19.33;;;14.13;;
19384;SDS011;9828;54.122;17.974;2023-04-24T02:43:42;16.77;;;13.45;;
19384;SDS011;9828;54.122;17.974;2023-04-24T02:49:04;19.02;;;14.75;;
19384;SDS011;9828;54.122;17.974;2023-04-24T02:54:25;16.63;;;13.68;;
19384;SDS011;9828;54.122;17.974;2023-04-24T02:59:46;19.38;;;15.52;;
19384;SDS011;9828;54.122;17.974;2023-04-24T03:05:08;16.67;;;14.45;;
19384;SDS011;9828;54.122;17.974;2023-04-24T03:10:30;22.23;;;15.75;;
19384;SDS011;9828;54.122;17.974;2023-04-24T03:15:51;17.58;;;14.35;;
19384;SDS011;9828;54.122;17.974;2023-04-24T03:21:13;21.08;;;16.45;;
19384;SDS011;9828;54.122;17.974;2023-04-24T03:26:38;18.63;;;15.73;;
19384;SDS011;9828;54.122;17.974;2023-04-24T03:32:13;19.90;;;17.40;;
19384;SDS011;9828;54.122;17.974;2023-04-24T03:37:34;21.48;;;16.58;;
19384;SDS011;9828;54.122;17.974;2023-04-24T03:43:31;22.02;;;18.08;;
19384;SDS011;9828;54.122;17.974;2023-04-24T03:48:56;23.20;;;17.10;;
19384;SDS011;9828;54.122;17.974;2023-04-24T03:54:22;21.52;;;17.13;;
19384;SDS011;9828;54.122;17.974;2023-04-24T03:59:45;20.45;;;17.50;;
19384;SDS011;9828;54.122;17.974;2023-04-24T04:05:10;25.23;;;19.35;;
19384;SDS011;9828;54.122;17.974;2023-04-24T04:10:31;21.85;;;18.20;;
19384;SDS011;9828;54.122;17.974;2023-04-24T04:15:53;24.23;;;18.35;;
19384;SDS011;9828;54.122;17.974;2023-04-24T04:21:14;20.55;;;17.42;;
19384;SDS011;9828;54.122;17.974;2023-04-24T04:26:36;24.98;;;18.95;;
19384;SDS011;9828;54.122;17.974;2023-04-24T04:32:01;24.38;;;19.10;;
19384;SDS011;9828;54.122;17.974;2023-04-24T04:37:24;28.52;;;20.55;;
19384;SDS011;9828;54.122;17.974;2023-04-24T04:43:05;31.13;;;23.60;;
19384;SDS011;9828;54.122;17.974;2023-04-24T04:48:36;32.78;;;24.08;;
19384;SDS011;9828;54.122;17.974;2023-04-24T04:54:00;26.98;;;21.23;;
19384;SDS011;9828;54.122;17.974;2023-04-24T04:59:22;28.55;;;20.48;;
19384;SDS011;9828;54.122;17.974;2023-04-24T05:04:50;34.42;;;23.92;;
19384;SDS011;9828;54.122;17.974;2023-04-24T05:10:12;29.17;;;21.92;;
19384;SDS011;9828;54.122;17.974;2023-04-24T05:15:33;32.40;;;23.60;;
19384;SDS011;9828;54.122;17.974;2023-04-24T05:20:56;26.88;;;21.05;;
19384;SDS011;9828;54.122;17.974;2023-04-24T05:26:18;29.40;;;21.20;;
19384;SDS011;9828;54.122;17.974;2023-04-24T05:31:40;27.92;;;21.73;;
19384;SDS011;9828;54.122;17.974;2023-04-24T05:37:01;25.85;;;19.92;;
19384;SDS011;9828;54.122;17.974;2023-04-24T05:42:24;35.53;;;21.83;;
19384;SDS011;9828;54.122;17.974;2023-04-24T05:47:45;26.65;;;20.35;;
19384;SDS011;9828;54.122;17.974;2023-04-24T05:53:07;22.30;;;17.30;;
19384;SDS011;9828;54.122;17.974;2023-04-24T05:58:29;22.63;;;18.27;;
19384;SDS011;9828;54.122;17.974;2023-04-24T06:03:51;24.42;;;18.70;;
19384;SDS011;9828;54.122;17.974;2023-04-24T06:09:14;27.38;;;20.63;;
19384;SDS011;9828;54.122;17.974;2023-04-24T06:14:35;25.27;;;19.15;;
19384;SDS011;9828;54.122;17.974;2023-04-24T06:20:17;24.63;;;18.00;;
19384;SDS011;9828;54.122;17.974;2023-04-24T06:25:38;27.35;;;19.42;;
19384;SDS011;9828;54.122;17.974;2023-04-24T06:31:00;25.42;;;19.75;;
19384;SDS011;9828;54.122;17.974;2023-04-24T06:36:22;25.33;;;19.42;;
19384;SDS011;9828;54.122;17.974;2023-04-24T06:41:43;23.30;;;19.48;;
19384;SDS011;9828;54.122;17.974;2023-04-24T06:47:12;25.02;;;18.42;;
19384;SDS011;9828;54.122;17.974;2023-04-24T06:52:34;28.90;;;22.83;;
19384;SDS011;9828;54.122;17.974;2023-04-24T06:57:55;29.52;;;22.15;;
19384;SDS011;9828;54.122;17.974;2023-04-24T07:03:17;31.63;;;23.48;;
19384;SDS011;9828;54.122;17.974;2023-04-24T07:08:38;28.88;;;22.60;;
19384;SDS011;9828;54.122;17.974;2023-04-24T07:14:02;26.40;;;20.77;;
19384;SDS011;9828;54.122;17.974;2023-04-24T07:19:23;30.17;;;22.20;;
19384;SDS011;9828;54.122;17.974;2023-04-24T07:24:45;29.27;;;22.15;;
19384;SDS011;9828;54.122;17.974;2023-04-24T07:30:07;28.10;;;20.95;;
19384;SDS011;9828;54.122;17.974;2023-04-24T07:35:29;29.00;;;22.23;;
19384;SDS011;9828;54.122;17.974;2023-04-24T07:40:51;28.08;;;21.90;;
19384;SDS011;9828;54.122;17.974;2023-04-24T07:46:13;24.45;;;19.02;;
19384;SDS011;9828;54.122;17.974;2023-04-24T07:51:34;22.30;;;16.80;;
19384;SDS011;9828;54.122;17.974;2023-04-24T07:56:58;24.25;;;18.27;;
19384;SDS011;9828;54.122;17.974;2023-04-24T08:02:21;17.02;;;14.57;;
19384;SDS011;9828;54.122;17.974;2023-04-24T08:07:46;21.55;;;15.52;;
19384;SDS011;9828;54.122;17.974;2023-04-24T08:13:10;18.63;;;13.45;;
19384;SDS011;9828;54.122;17.974;2023-04-24T08:18:32;18.70;;;13.98;;
19384;SDS011;9828;54.122;17.974;2023-04-24T08:23:54;20.25;;;14.38;;
19384;SDS011;9828;54.122;17.974;2023-04-24T08:29:16;14.70;;;11.85;;
19384;SDS011;9828;54.122;17.974;2023-04-24T08:34:37;11.77;;;10.32;;
19384;SDS011;9828;54.122;17.974;2023-04-24T08:39:58;12.05;;;10.65;;
19384;SDS011;9828;54.122;17.974;2023-04-24T08:45:20;18.05;;;12.25;;
19384;SDS011;9828;54.122;17.974;2023-04-24T08:50:42;12.75;;;11.20;;
19384;SDS011;9828;54.122;17.974;2023-04-24T08:56:05;15.82;;;12.13;;
19384;SDS011;9828;54.122;17.974;2023-04-24T09:01:28;17.42;;;13.93;;
19384;SDS011;9828;54.122;17.974;2023-04-24T09:06:55;15.00;;;13.40;;
19384;SDS011;9828;54.122;17.974;2023-04-24T09:12:18;15.98;;;13.75;;
19384;SDS011;9828;54.122;17.974;2023-04-24T09:17:40;18.48;;;15.43;;
19384;SDS011;9828;54.122;17.974;2023-04-24T09:23:01;15.15;;;12.43;;
19384;SDS011;9828;54.122;17.974;2023-04-24T09:28:30;18.73;;;12.80;;
19384;SDS011;9828;54.122;17.974;2023-04-24T09:39:22;14.35;;;10.57;;
19384;SDS011;9828;54.122;17.974;2023-04-24T09:44:43;15.23;;;10.45;;
19384;SDS011;9828;54.122;17.974;2023-04-24T09:50:12;12.40;;;7.40;;
19384;SDS011;9828;54.122;17.974;2023-04-24T09:55:38;15.38;;;12.18;;
19384;SDS011;9828;54.122;17.974;2023-04-24T10:01:01;16.85;;;10.20;;
19384;SDS011;9828;54.122;17.974;2023-04-24T10:06:34;12.55;;;8.13;;
19384;SDS011;9828;54.122;17.974;2023-04-24T10:11:56;12.50;;;8.77;;
19384;SDS011;9828;54.122;17.974;2023-04-24T10:17:17;14.65;;;8.63;;
19384;SDS011;9828;54.122;17.974;2023-04-24T10:22:41;9.32;;;7.80;;
19384;SDS011;9828;54.122;17.974;2023-04-24T10:28:03;7.47;;;6.65;;
19384;SDS011;9828;54.122;17.974;2023-04-24T10:33:26;9.85;;;7.32;;
19384;SDS011;9828;54.122;17.974;2023-04-24T10:38:47;12.57;;;8.85;;
19384;SDS011;9828;54.122;17.974;2023-04-24T10:44:11;13.95;;;8.25;;
19384;SDS011;9828;54.122;17.974;2023-04-24T10:49:34;8.45;;;6.43;;
19384;SDS011;9828;54.122;17.974;2023-04-24T10:54:56;10.07;;;8.15;;
19384;SDS011;9828;54.122;17.974;2023-04-24T11:00:24;10.05;;;6.90;;
19384;SDS011;9828;54.122;17.974;2023-04-24T11:11:25;8.32;;;5.57;;
19384;SDS011;9828;54.122;17.974;2023-04-24T11:16:53;10.30;;;5.10;;
19384;SDS011;9828;54.122;17.974;2023-04-24T11:22:17;7.60;;;5.78;;
19384;SDS011;9828;54.122;17.974;2023-04-24T11:27:42;8.93;;;5.68;;
19384;SDS011;9828;54.122;17.974;2023-04-24T11:33:04;6.78;;;5.35;;
19384;SDS011;9828;54.122;17.974;2023-04-24T11:38:25;7.97;;;5.47;;
19384;SDS011;9828;54.122;17.974;2023-04-24T11:43:48;8.73;;;5.80;;
19384;SDS011;9828;54.122;17.974;2023-04-24T11:49:10;9.30;;;6.63;;
19384;SDS011;9828;54.122;17.974;2023-04-24T11:54:32;10.90;;;6.95;;
19384;SDS011;9828;54.122;17.974;2023-04-24T11:59:54;8.48;;;6.07;;
19384;SDS011;9828;54.122;17.974;2023-04-24T12:05:20;14.80;;;9.57;;
19384;SDS011;9828;54.122;17.974;2023-04-24T12:10:45;8.20;;;5.63;;
19384;SDS011;9828;54.122;17.974;2023-04-24T12:16:13;12.05;;;8.10;;
19384;SDS011;9828;54.122;17.974;2023-04-24T12:21:34;10.13;;;7.30;;
19384;SDS011;9828;54.122;17.974;2023-04-24T12:26:56;7.50;;;6.50;;
19384;SDS011;9828;54.122;17.974;2023-04-24T12:32:18;8.30;;;6.65;;
19384;SDS011;9828;54.122;17.974;2023-04-24T12:37:42;9.00;;;6.90;;
19384;SDS011;9828;54.122;17.974;2023-04-24T12:43:15;11.43;;;7.00;;
19384;SDS011;9828;54.122;17.974;2023-04-24T12:48:40;11.63;;;7.00;;
19384;SDS011;9828;54.122;17.974;2023-04-24T12:54:01;11.02;;;6.43;;
19384;SDS011;9828;54.122;17.974;2023-04-24T12:59:26;7.75;;;5.75;;
19384;SDS011;9828;54.122;17.974;2023-04-24T13:04:48;9.55;;;4.97;;
19384;SDS011;9828;54.122;17.974;2023-04-24T13:10:10;7.45;;;5.43;;
19384;SDS011;9828;54.122;17.974;2023-04-24T13:15:31;8.02;;;6.07;;
19384;SDS011;9828;54.122;17.974;2023-04-24T13:20:52;12.18;;;6.40;;
19384;SDS011;9828;54.122;17.974;2023-04-24T13:26:14;6.65;;;4.65;;
19384;SDS011;9828;54.122;17.974;2023-04-24T13:31:35;8.18;;;5.22;;
19384;SDS011;9828;54.122;17.974;2023-04-24T13:36:57;14.02;;;6.20;;
19384;SDS011;9828;54.122;17.974;2023-04-24T13:42:19;10.27;;;5.93;;
19384;SDS011;9828;54.122;17.974;2023-04-24T13:47:41;10.00;;;6.32;;
19384;SDS011;9828;54.122;17.974;2023-04-24T13:53:02;10.38;;;6.63;;
19384;SDS011;9828;54.122;17.974;2023-04-24T13:58:24;12.20;;;7.05;;
19384;SDS011;9828;54.122;17.974;2023-04-24T14:03:45;8.20;;;5.30;;
19384;SDS011;9828;54.122;17.974;2023-04-24T14:09:07;6.60;;;4.82;;
19384;SDS011;9828;54.122;17.974;2023-04-24T14:14:28;6.80;;;4.43;;
19384;SDS011;9828;54.122;17.974;2023-04-24T14:19:50;18.17;;;6.07;;
19384;SDS011;9828;54.122;17.974;2023-04-24T14:25:12;10.43;;;7.13;;
19384;SDS011;9828;54.122;17.974;2023-04-24T14:30:33;18.45;;;11.85;;
19384;SDS011;9828;54.122;17.974;2023-04-24T14:35:55;18.42;;;11.98;;
19384;SDS011;9828;54.122;17.974;2023-04-24T14:41:17;10.10;;;8.32;;
19384;SDS011;9828;54.122;17.974;2023-04-24T14:46:38;13.18;;;9.35;;
19384;SDS011;9828;54.122;17.974;2023-04-24T14:52:00;13.85;;;8.05;;
19384;SDS011;9828;54.122;17.974;2023-04-24T14:57:24;12.45;;;8.10;;
19384;SDS011;9828;54.122;17.974;2023-04-24T15:02:45;11.48;;;7.88;;
19384;SDS011;9828;54.122;17.974;2023-04-24T15:08:07;13.50;;;10.70;;
19384;SDS011;9828;54.122;17.974;2023-04-24T15:13:28;3.85;;;2.17;;
19384;SDS011;9828;54.122;17.974;2023-04-24T15:18:51;1.52;;;1.40;;
19384;SDS011;9828;54.122;17.974;2023-04-24T15:24:12;2.92;;;1.73;;
19384;SDS011;9828;54.122;17.974;2023-04-24T15:29:33;2.88;;;1.55;;
19384;SDS011;9828;54.122;17.974;2023-04-24T15:34:55;2.75;;;1.60;;
19384;SDS011;9828;54.122;17.974;2023-04-24T15:40:24;5.95;;;2.25;;
19384;SDS011;9828;54.122;17.974;2023-04-24T15:45:46;2.90;;;1.90;;
19384;SDS011;9828;54.122;17.974;2023-04-24T15:51:09;2.92;;;1.50;;
19384;SDS011;9828;54.122;17.974;2023-04-24T15:56:31;21.77;;;8.40;;
19384;SDS011;9828;54.122;17.974;2023-04-24T16:01:52;3.47;;;1.75;;
19384;SDS011;9828;54.122;17.974;2023-04-24T16:07:16;5.97;;;3.60;;
19384;SDS011;9828;54.122;17.974;2023-04-24T16:12:38;20.77;;;9.38;;
19384;SDS011;9828;54.122;17.974;2023-04-24T16:17:59;6.63;;;4.43;;
19384;SDS011;9828;54.122;17.974;2023-04-24T16:23:20;15.40;;;5.13;;
19384;SDS011;9828;54.122;17.974;2023-04-24T16:28:42;11.45;;;5.05;;
19384;SDS011;9828;54.122;17.974;2023-04-24T16:34:03;17.77;;;9.95;;
19384;SDS011;9828;54.122;17.974;2023-04-24T16:39:27;4.03;;;2.85;;
19384;SDS011;9828;54.122;17.974;2023-04-24T16:44:48;3.22;;;2.47;;
19384;SDS011;9828;54.122;17.974;2023-04-24T16:50:09;3.03;;;2.50;;
19384;SDS011;9828;54.122;17.974;2023-04-24T16:55:31;4.05;;;2.17;;
19384;SDS011;9828;54.122;17.974;2023-04-24T17:00:53;4.07;;;2.90;;
19384;SDS011;9828;54.122;17.974;2023-04-24T17:06:14;1.67;;;1.58;;
19384;SDS011;9828;54.122;17.974;2023-04-24T17:11:35;2.50;;;2.30;;
19384;SDS011;9828;54.122;17.974;2023-04-24T17:16:57;4.03;;;3.20;;
19384;SDS011;9828;54.122;17.974;2023-04-24T17:22:18;5.03;;;3.90;;
19384;SDS011;9828;54.122;17.974;2023-04-24T17:27:39;16.30;;;11.18;;
19384;SDS011;9828;54.122;17.974;2023-04-24T17:33:01;16.73;;;11.32;;
19384;SDS011;9828;54.122;17.974;2023-04-24T17:38:23;19.23;;;9.63;;
19384;SDS011;9828;54.122;17.974;2023-04-24T17:43:44;20.15;;;10.63;;
19384;SDS011;9828;54.122;17.974;2023-04-24T17:49:05;14.45;;;10.73;;
19384;SDS011;9828;54.122;17.974;2023-04-24T17:54:26;9.98;;;5.75;;
19384;SDS011;9828;54.122;17.974;2023-04-24T17:59:47;5.97;;;4.75;;
19384;SDS011;9828;54.122;17.974;2023-04-24T18:05:09;8.43;;;5.03;;
19384;SDS011;9828;54.122;17.974;2023-04-24T18:10:31;7.70;;;5.32;;
19384;SDS011;9828;54.122;17.974;2023-04-24T18:15:53;6.93;;;5.15;;
19384;SDS011;9828;54.122;17.974;2023-04-24T18:21:14;5.18;;;3.80;;
19384;SDS011;9828;54.122;17.974;2023-04-24T18:26:36;8.45;;;4.57;;
19384;SDS011;9828;54.122;17.974;2023-04-24T18:31:57;8.40;;;5.65;;
19384;SDS011;9828;54.122;17.974;2023-04-24T18:37:18;10.27;;;6.60;;
19384;SDS011;9828;54.122;17.974;2023-04-24T18:42:40;28.50;;;15.50;;
19384;SDS011;9828;54.122;17.974;2023-04-24T18:48:02;28.80;;;15.90;;
19384;SDS011;9828;54.122;17.974;2023-04-24T18:53:23;14.13;;;8.20;;
19384;SDS011;9828;54.122;17.974;2023-04-24T18:58:45;6.72;;;4.95;;
19384;SDS011;9828;54.122;17.974;2023-04-24T19:04:06;11.18;;;6.38;;
19384;SDS011;9828;54.122;17.974;2023-04-24T19:09:28;7.72;;;5.40;;
19384;SDS011;9828;54.122;17.974;2023-04-24T19:14:49;10.25;;;6.57;;
19384;SDS011;9828;54.122;17.974;2023-04-24T19:20:11;8.23;;;5.88;;
19384;SDS011;9828;54.122;17.974;2023-04-24T19:25:32;6.38;;;4.28;;
19384;SDS011;9828;54.122;17.974;2023-04-24T19:30:54;10.73;;;5.90;;
19384;SDS011;9828;54.122;17.974;2023-04-24T19:36:18;9.25;;;5.80;;
19384;SDS011;9828;54.122;17.974;2023-04-24T19:41:39;8.05;;;5.22;;
19384;SDS011;9828;54.122;17.974;2023-04-24T19:47:01;6.05;;;3.90;;
19384;SDS011;9828;54.122;17.974;2023-04-24T19:52:22;5.97;;;4.05;;
19384;SDS011;9828;54.122;17.974;2023-04-24T19:57:44;8.40;;;4.40;;
19384;SDS011;9828;54.122;17.974;2023-04-24T20:03:05;5.32;;;3.65;;
19384;SDS011;9828;54.122;17.974;2023-04-24T20:08:27;8.25;;;4.70;;
19384;SDS011;9828;54.122;17.974;2023-04-24T20:13:49;15.60;;;8.73;;
19384;SDS011;9828;54.122;17.974;2023-04-24T20:19:11;38.00;;;20.33;;
19384;SDS011;9828;54.122;17.974;2023-04-24T20:24:32;19.25;;;10.35;;
19384;SDS011;9828;54.122;17.974;2023-04-24T20:29:53;33.10;;;16.48;;
19384;SDS011;9828;54.122;17.974;2023-04-24T20:35:15;38.00;;;17.20;;
19384;SDS011;9828;54.122;17.974;2023-04-24T20:40:37;38.90;;;20.02;;
19384;SDS011;9828;54.122;17.974;2023-04-24T20:46:04;11.88;;;6.85;;
19384;SDS011;9828;54.122;17.974;2023-04-24T20:51:25;7.35;;;4.53;;
19384;SDS011;9828;54.122;17.974;2023-04-24T20:56:47;11.57;;;8.80;;
19384;SDS011;9828;54.122;17.974;2023-04-24T21:02:08;5.10;;;3.70;;
19384;SDS011;9828;54.122;17.974;2023-04-24T21:07:30;4.82;;;2.80;;
19384;SDS011;9828;54.122;17.974;2023-04-24T21:12:52;7.28;;;4.22;;
19384;SDS011;9828;54.122;17.974;2023-04-24T21:18:13;4.55;;;3.38;;
19384;SDS011;9828;54.122;17.974;2023-04-24T21:23:35;4.35;;;2.70;;
19384;SDS011;9828;54.122;17.974;2023-04-24T21:28:57;5.43;;;3.72;;
19384;SDS011;9828;54.122;17.974;2023-04-24T21:34:18;7.13;;;4.85;;
19384;SDS011;9828;54.122;17.974;2023-04-24T21:39:40;6.55;;;4.47;;
19384;SDS011;9828;54.122;17.974;2023-04-24T21:45:02;5.75;;;3.70;;
19384;SDS011;9828;54.122;17.974;2023-04-24T21:50:24;6.82;;;4.10;;
19384;SDS011;9828;54.122;17.974;2023-04-24T21:55:45;5.40;;;3.38;;
19384;SDS011;9828;54.122;17.974;2023-04-24T22:01:07;4.80;;;2.92;;
19384;SDS011;9828;54.122;17.974;2023-04-24T22:06:29;3.03;;;2.50;;
19384;SDS011;9828;54.122;17.974;2023-04-24T22:11:51;3.30;;;2.35;;
19384;SDS011;9828;54.122;17.974;2023-04-24T22:17:13;2.92;;;2.42;;
19384;SDS011;9828;54.122;17.974;2023-04-24T22:22:36;3.58;;;2.90;;
19384;SDS011;9828;54.122;17.974;2023-04-24T22:27:58;3.85;;;2.92;;
19384;SDS011;9828;54.122;17.974;2023-04-24T22:33:19;4.13;;;2.80;;
19384;SDS011;9828;54.122;17.974;2023-04-24T22:38:41;3.72;;;2.90;;
19384;SDS011;9828;54.122;17.974;2023-04-24T22:44:02;5.28;;;3.28;;
19384;SDS011;9828;54.122;17.974;2023-04-24T22:49:24;3.92;;;2.80;;
19384;SDS011;9828;54.122;17.974;2023-04-24T22:54:47;7.72;;;3.50;;
19384;SDS011;9828;54.122;17.974;2023-04-24T23:00:09;4.30;;;2.95;;
19384;SDS011;9828;54.122;17.974;2023-04-24T23:05:31;3.08;;;2.42;;
19384;SDS011;9828;54.122;17.974;2023-04-24T23:10:53;4.47;;;2.47;;
19384;SDS011;9828;54.122;17.974;2023-04-24T23:16:14;3.97;;;2.88;;
19384;SDS011;9828;54.122;17.974;2023-04-24T23:21:36;3.88;;;2.88;;
19384;SDS011;9828;54.122;17.974;2023-04-24T23:26:57;2.95;;;2.45;;
19384;SDS011;9828;54.122;17.974;2023-04-24T23:32:18;4.05;;;2.10;;
19384;SDS011;9828;54.122;17.974;2023-04-24T23:37:40;4.47;;;2.10;;
19384;SDS011;9828;54.122;17.974;2023-04-24T23:43:02;3.30;;;1.88;;
19384;SDS011;9828;54.122;17.974;2023-04-24T23:48:26;2.17;;;1.70;;
19384;SDS011;9828;54.122;17.974;2023-04-24T23:53:47;2.10;;;1.90;;
19384;SDS011;9828;54.122;17.974;2023-04-24T23:59:09;2.05;;;1.77;;
